sensor_id;sensor_type;location;lat;lon;timestamp;pressure;altitude;pressure_sealevel;temperature;humidity
79242;BME280;68670;48.720;9.118;2024-02-04T00:01:48;97967.31;;;6.38;85.52
79242;BME280;68670;48.720;9.118;2024-02-04T00:04:13;97963.47;;;6.32;85.89
79242;BME280;68670;48.720;9.118;2024-02-04T00:06:39;97959.06;;;6.31;86.17
79242;BME280;68670;48.720;9.118;2024-02-04T00:09:04;97961.19;;;6.36;86.14
79242;BME280;68670;48.720;9.118;2024-02-04T00:11:30;97957.44;;;6.37;85.97
79242;BME280;68670;48.720;9.118;2024-02-04T00:13:57;97957.16;;;6.32;85.97
79242;BME280;68670;48.720;9.118;2024-02-04T00:16:22;97946.75;;;6.35;85.84
79242;BME280;68670;48.720;9.118;2024-02-04T00:18:48;97922.00;;;6.30;85.93
79242;BME280;68670;48.720;9.118;2024-02-04T00:21:18;97920.38;;;6.36;85.95
79242;BME280;68670;48.720;9.118;2024-02-04T00:23:43;97922.06;;;6.37;85.71
79242;BME280;68670;48.720;9.118;2024-02-04T00:26:08;97915.59;;;6.38;85.71
79242;BME280;68670;48.720;9.118;2024-02-04T00:28:36;97902.00;;;6.38;85.81
79242;BME280;68670;48.720;9.118;2024-02-04T00:31:01;97891.97;;;6.38;85.79
79242;BME280;68670;48.720;9.118;2024-02-04T00:33:27;97886.06;;;6.35;85.98
79242;BME280;68670;48.720;9.118;2024-02-04T00:35:52;97877.25;;;6.33;85.93
79242;BME280;68670;48.720;9.118;2024-02-04T00:38:17;97878.66;;;6.29;86.22
79242;BME280;68670;48.720;9.118;2024-02-04T00:40:45;97889.72;;;6.27;85.87
79242;BME280;68670;48.720;9.118;2024-02-04T00:43:10;97889.53;;;6.29;86.03
79242;BME280;68670;48.720;9.118;2024-02-04T00:45:36;97883.06;;;6.30;86.23
79242;BME280;68670;48.720;9.118;2024-02-04T00:48:04;97879.78;;;6.20;86.14
79242;BME280;68670;48.720;9.118;2024-02-04T00:50:32;97898.00;;;6.19;86.82
79242;BME280;68670;48.720;9.118;2024-02-04T00:52:57;97895.47;;;6.18;86.55
79242;BME280;68670;48.720;9.118;2024-02-04T00:55:22;97898.78;;;6.13;86.96
79242;BME280;68670;48.720;9.118;2024-02-04T00:57:50;97886.59;;;6.09;87.03
79242;BME280;68670;48.720;9.118;2024-02-04T01:00:15;97912.47;;;6.05;87.31
79242;BME280;68670;48.720;9.118;2024-02-04T01:02:41;97907.41;;;6.02;87.40
79242;BME280;68670;48.720;9.118;2024-02-04T01:05:06;97921.66;;;6.04;87.38
79242;BME280;68670;48.720;9.118;2024-02-04T01:07:32;97913.69;;;6.02;87.37
79242;BME280;68670;48.720;9.118;2024-02-04T01:09:57;97891.94;;;6.02;87.37
79242;BME280;68670;48.720;9.118;2024-02-04T01:12:22;97896.06;;;5.98;87.38
79242;BME280;68670;48.720;9.118;2024-02-04T01:14:48;97902.16;;;6.00;87.31
79242;BME280;68670;48.720;9.118;2024-02-04T01:17:13;97889.22;;;6.02;87.16
79242;BME280;68670;48.720;9.118;2024-02-04T01:19:41;97894.38;;;5.97;87.21
79242;BME280;68670;48.720;9.118;2024-02-04T01:22:06;97892.78;;;6.03;87.07
79242;BME280;68670;48.720;9.118;2024-02-04T01:24:31;97892.97;;;6.01;87.12
79242;BME280;68670;48.720;9.118;2024-02-04T01:26:57;97885.19;;;5.98;87.24
79242;BME280;68670;48.720;9.118;2024-02-04T01:29:22;97881.34;;;5.93;87.58
79242;BME280;68670;48.720;9.118;2024-02-04T01:31:47;97875.06;;;5.92;87.78
79242;BME280;68670;48.720;9.118;2024-02-04T01:34:13;97867.56;;;5.94;87.63
79242;BME280;68670;48.720;9.118;2024-02-04T01:36:40;97878.44;;;5.94;87.61
79242;BME280;68670;48.720;9.118;2024-02-04T01:39:05;97883.59;;;5.89;87.55
79242;BME280;68670;48.720;9.118;2024-02-04T01:41:32;97875.44;;;5.89;88.05
79242;BME280;68670;48.720;9.118;2024-02-04T01:43:58;97878.91;;;5.83;88.44
79242;BME280;68670;48.720;9.118;2024-02-04T01:46:23;97876.19;;;5.83;87.94
79242;BME280;68670;48.720;9.118;2024-02-04T01:48:49;97898.31;;;5.80;88.12
79242;BME280;68670;48.720;9.118;2024-02-04T01:51:15;97891.19;;;5.79;88.16
79242;BME280;68670;48.720;9.118;2024-02-04T01:53:44;97903.75;;;5.80;88.19
79242;BME280;68670;48.720;9.118;2024-02-04T01:56:13;97900.00;;;5.81;88.28
79242;BME280;68670;48.720;9.118;2024-02-04T01:58:39;97888.66;;;5.78;88.67
79242;BME280;68670;48.720;9.118;2024-02-04T02:01:05;97891.56;;;5.76;88.69
79242;BME280;68670;48.720;9.118;2024-02-04T02:03:31;97904.13;;;5.77;88.74
79242;BME280;68670;48.720;9.118;2024-02-04T02:05:56;97909.44;;;5.85;88.27
79242;BME280;68670;48.720;9.118;2024-02-04T02:08:22;97887.50;;;5.87;88.04
79242;BME280;68670;48.720;9.118;2024-02-04T02:10:48;97894.63;;;5.88;88.12
79242;BME280;68670;48.720;9.118;2024-02-04T02:13:20;97888.34;;;5.87;88.25
79242;BME280;68670;48.720;9.118;2024-02-04T02:15:52;97881.44;;;5.99;87.73
79242;BME280;68670;48.720;9.118;2024-02-04T02:23:35;97879.16;;;5.88;88.26
79242;BME280;68670;48.720;9.118;2024-02-04T02:26:02;97871.19;;;5.87;88.32
79242;BME280;68670;48.720;9.118;2024-02-04T02:28:29;97871.19;;;5.87;88.44
79242;BME280;68670;48.720;9.118;2024-02-04T02:30:54;97876.63;;;5.87;88.35
79242;BME280;68670;48.720;9.118;2024-02-04T02:33:19;97879.47;;;5.79;88.63
79242;BME280;68670;48.720;9.118;2024-02-04T02:35:46;97894.09;;;5.78;89.06
79242;BME280;68670;48.720;9.118;2024-02-04T02:38:31;97891.56;;;5.76;89.21
79242;BME280;68670;48.720;9.118;2024-02-04T02:40:59;97886.13;;;5.76;89.23
79242;BME280;68670;48.720;9.118;2024-02-04T02:43:31;97882.38;;;5.77;89.25
79242;BME280;68670;48.720;9.118;2024-02-04T02:46:00;97870.47;;;5.78;88.87
79242;BME280;68670;48.720;9.118;2024-02-04T02:48:25;97865.22;;;5.77;89.37
79242;BME280;68670;48.720;9.118;2024-02-04T02:50:51;97886.41;;;5.81;89.24
79242;BME280;68670;48.720;9.118;2024-02-04T02:53:16;97873.47;;;5.83;89.42
79242;BME280;68670;48.720;9.118;2024-02-04T02:55:44;97883.69;;;5.81;89.27
79242;BME280;68670;48.720;9.118;2024-02-04T02:58:12;97892.69;;;5.82;89.45
79242;BME280;68670;48.720;9.118;2024-02-04T03:00:37;97882.47;;;5.84;89.37
79242;BME280;68670;48.720;9.118;2024-02-04T03:03:03;97893.78;;;5.87;89.39
79242;BME280;68670;48.720;9.118;2024-02-04T03:05:28;97888.28;;;5.81;89.32
79242;BME280;68670;48.720;9.118;2024-02-04T03:07:53;97886.66;;;5.86;89.54
79242;BME280;68670;48.720;9.118;2024-02-04T03:10:19;97902.97;;;5.86;89.47
79242;BME280;68670;48.720;9.118;2024-02-04T03:12:46;97885.81;;;5.86;89.48
79242;BME280;68670;48.720;9.118;2024-02-04T03:15:11;97878.91;;;5.83;89.73
79242;BME280;68670;48.720;9.118;2024-02-04T03:17:39;97876.19;;;5.83;89.79
79242;BME280;68670;48.720;9.118;2024-02-04T03:20:04;97873.00;;;5.80;89.99
79242;BME280;68670;48.720;9.118;2024-02-04T03:22:30;97864.00;;;5.79;90.09
79242;BME280;68670;48.720;9.118;2024-02-04T03:24:55;97860.06;;;5.82;90.04
79242;BME280;68670;48.720;9.118;2024-02-04T03:27:21;97862.84;;;5.88;89.65
79242;BME280;68670;48.720;9.118;2024-02-04T03:29:46;97860.81;;;5.90;89.79
79242;BME280;68670;48.720;9.118;2024-02-04T03:32:11;97854.03;;;5.86;90.07
79242;BME280;68670;48.720;9.118;2024-02-04T03:34:42;97862.84;;;5.88;90.07
79242;BME280;68670;48.720;9.118;2024-02-04T03:37:08;97859.28;;;5.88;90.25
79242;BME280;68670;48.720;9.118;2024-02-04T03:39:35;97849.44;;;5.87;90.05
79242;BME280;68670;48.720;9.118;2024-02-04T03:42:00;97851.63;;;5.91;89.92
79242;BME280;68670;48.720;9.118;2024-02-04T03:44:26;97844.13;;;5.93;90.09
79242;BME280;68670;48.720;9.118;2024-02-04T03:46:51;97842.81;;;5.89;90.21
79242;BME280;68670;48.720;9.118;2024-02-04T03:49:17;97849.19;;;5.96;90.03
79242;BME280;68670;48.720;9.118;2024-02-04T03:51:45;97854.25;;;5.99;89.81
79242;BME280;68670;48.720;9.118;2024-02-04T03:54:13;97844.69;;;6.03;89.33
79242;BME280;68670;48.720;9.118;2024-02-04T03:56:38;97843.91;;;6.10;88.97
79242;BME280;68670;48.720;9.118;2024-02-04T03:59:03;97843.53;;;6.13;89.22
79242;BME280;68670;48.720;9.118;2024-02-04T04:01:29;97830.72;;;6.06;89.26
79242;BME280;68670;48.720;9.118;2024-02-04T04:03:54;97832.66;;;6.13;89.13
79242;BME280;68670;48.720;9.118;2024-02-04T04:06:22;97841.31;;;6.01;89.29
79242;BME280;68670;48.720;9.118;2024-02-04T04:08:47;97841.00;;;6.11;88.71
79242;BME280;68670;48.720;9.118;2024-02-04T04:11:12;97840.56;;;6.07;89.08
79242;BME280;68670;48.720;9.118;2024-02-04T04:13:38;97850.59;;;6.07;88.97
79242;BME280;68670;48.720;9.118;2024-02-04T04:16:04;97840.56;;;6.07;88.52
79242;BME280;68670;48.720;9.118;2024-02-04T04:18:29;97865.69;;;6.10;88.92
79242;BME280;68670;48.720;9.118;2024-02-04T04:20:55;97853.31;;;6.07;88.92
79242;BME280;68670;48.720;9.118;2024-02-04T04:23:20;97867.00;;;6.14;88.37
79242;BME280;68670;48.720;9.118;2024-02-04T04:25:46;97872.44;;;6.14;88.34
79242;BME280;68670;48.720;9.118;2024-02-04T04:28:13;97865.09;;;6.14;88.49
79242;BME280;68670;48.720;9.118;2024-02-04T04:30:38;97857.13;;;6.13;88.38
79242;BME280;68670;48.720;9.118;2024-02-04T04:33:04;97833.88;;;6.10;88.59
79242;BME280;68670;48.720;9.118;2024-02-04T04:35:29;97843.53;;;6.13;88.30
79242;BME280;68670;48.720;9.118;2024-02-04T04:37:54;97855.66;;;6.10;88.38
79242;BME280;68670;48.720;9.118;2024-02-04T04:40:22;97851.81;;;6.04;88.53
79242;BME280;68670;48.720;9.118;2024-02-04T04:42:49;97850.13;;;6.03;88.44
79242;BME280;68670;48.720;9.118;2024-02-04T04:45:17;97866.06;;;6.06;88.11
79242;BME280;68670;48.720;9.118;2024-02-04T04:47:46;97866.81;;;6.00;88.00
79242;BME280;68670;48.720;9.118;2024-02-04T04:50:12;97876.94;;;6.06;88.21
79242;BME280;68670;48.720;9.118;2024-02-04T04:52:37;97877.03;;;5.98;88.41
79242;BME280;68670;48.720;9.118;2024-02-04T04:55:05;97891.00;;;5.95;88.68
79242;BME280;68670;48.720;9.118;2024-02-04T04:57:30;97898.50;;;5.93;89.17
79242;BME280;68670;48.720;9.118;2024-02-04T04:59:56;97884.25;;;5.91;88.63
79242;BME280;68670;48.720;9.118;2024-02-04T05:02:23;97888.75;;;5.84;89.28
79242;BME280;68670;48.720;9.118;2024-02-04T05:04:49;97882.84;;;5.81;89.05
79242;BME280;68670;48.720;9.118;2024-02-04T05:07:14;97888.47;;;5.79;89.40
79242;BME280;68670;48.720;9.118;2024-02-04T05:09:39;97895.97;;;5.77;89.40
79242;BME280;68670;48.720;9.118;2024-02-04T05:12:07;97893.34;;;5.69;89.59
79242;BME280;68670;48.720;9.118;2024-02-04T05:14:35;97888.94;;;5.68;89.72
79242;BME280;68670;48.720;9.118;2024-02-04T05:17:00;97885.56;;;5.66;89.84
79242;BME280;68670;48.720;9.118;2024-02-04T05:19:26;97890.91;;;5.59;90.28
79242;BME280;68670;48.720;9.118;2024-02-04T05:21:51;97892.59;;;5.60;90.30
79242;BME280;68670;48.720;9.118;2024-02-04T05:24:16;97894.38;;;5.68;90.01
79242;BME280;68670;48.720;9.118;2024-02-04T05:26:41;97892.03;;;5.65;90.12
79242;BME280;68670;48.720;9.118;2024-02-04T05:29:07;97896.53;;;5.72;89.76
79242;BME280;68670;48.720;9.118;2024-02-04T05:31:32;97895.69;;;5.72;89.62
79242;BME280;68670;48.720;9.118;2024-02-04T05:33:57;97887.91;;;5.69;89.82
79242;BME280;68670;48.720;9.118;2024-02-04T05:36:23;97888.56;;;5.71;90.05
79242;BME280;68670;48.720;9.118;2024-02-04T05:38:48;97887.72;;;5.70;89.89
79242;BME280;68670;48.720;9.118;2024-02-04T05:41:15;97879.38;;;5.72;89.89
79242;BME280;68670;48.720;9.118;2024-02-04T05:43:43;97874.31;;;5.69;89.79
79242;BME280;68670;48.720;9.118;2024-02-04T05:46:13;97871.88;;;5.74;89.80
79242;BME280;68670;48.720;9.118;2024-02-04T05:48:38;97875.25;;;5.76;89.58
79242;BME280;68670;48.720;9.118;2024-02-04T05:51:05;97875.72;;;5.80;89.51
79242;BME280;68670;48.720;9.118;2024-02-04T05:53:33;97873.66;;;5.82;89.43
79242;BME280;68670;48.720;9.118;2024-02-04T05:55:58;97887.44;;;5.80;89.30
79242;BME280;68670;48.720;9.118;2024-02-04T05:58:26;97896.81;;;5.78;89.70
79242;BME280;68670;48.720;9.118;2024-02-04T06:00:54;97897.84;;;5.77;89.56
79242;BME280;68670;48.720;9.118;2024-02-04T06:03:19;97894.28;;;5.76;89.68
79242;BME280;68670;48.720;9.118;2024-02-04T06:05:45;97904.13;;;5.77;89.61
79242;BME280;68670;48.720;9.118;2024-02-04T06:08:10;97910.78;;;5.74;89.98
79242;BME280;68670;48.720;9.118;2024-02-04T06:10:35;97908.25;;;5.73;90.16
79242;BME280;68670;48.720;9.118;2024-02-04T06:13:01;97900.66;;;5.68;90.54
79242;BME280;68670;48.720;9.118;2024-02-04T06:15:26;97887.25;;;5.67;89.95
79242;BME280;68670;48.720;9.118;2024-02-04T06:17:51;97906.56;;;5.72;90.29
79242;BME280;68670;48.720;9.118;2024-02-04T06:20:19;97915.56;;;5.72;89.72
79242;BME280;68670;48.720;9.118;2024-02-04T06:22:44;97916.59;;;5.71;90.56
79242;BME280;68670;48.720;9.118;2024-02-04T06:25:09;97913.69;;;5.73;90.06
79242;BME280;68670;48.720;9.118;2024-02-04T06:27:35;97920.44;;;5.77;89.90
79242;BME280;68670;48.720;9.118;2024-02-04T06:30:02;97906.84;;;5.77;89.85
79242;BME280;68670;48.720;9.118;2024-02-04T06:32:27;97904.13;;;5.77;90.01
79242;BME280;68670;48.720;9.118;2024-02-04T06:34:53;97899.91;;;5.74;90.07
79242;BME280;68670;48.720;9.118;2024-02-04T06:37:20;97898.31;;;5.80;90.00
79242;BME280;68670;48.720;9.118;2024-02-04T06:39:46;97898.69;;;5.77;90.11
79242;BME280;68670;48.720;9.118;2024-02-04T06:42:11;97905.81;;;5.78;90.07
79242;BME280;68670;48.720;9.118;2024-02-04T06:44:36;97908.53;;;5.78;90.14
79242;BME280;68670;48.720;9.118;2024-02-04T06:47:02;97909.75;;;5.76;90.35
79242;BME280;68670;48.720;9.118;2024-02-04T06:49:27;97918.09;;;5.74;90.66
79242;BME280;68670;48.720;9.118;2024-02-04T06:51:52;97927.38;;;5.80;90.36
79242;BME280;68670;48.720;9.118;2024-02-04T06:54:22;97936.00;;;5.83;90.23
79242;BME280;68670;48.720;9.118;2024-02-04T06:56:47;97930.66;;;5.90;89.78
79242;BME280;68670;48.720;9.118;2024-02-04T06:59:15;97931.84;;;5.87;89.84
79242;BME280;68670;48.720;9.118;2024-02-04T07:01:40;97937.69;;;5.84;90.37
79242;BME280;68670;48.720;9.118;2024-02-04T07:04:08;97949.84;;;5.88;90.08
79242;BME280;68670;48.720;9.118;2024-02-04T07:06:34;97938.53;;;5.85;90.64
79242;BME280;68670;48.720;9.118;2024-02-04T07:09:01;97934.56;;;5.87;90.13
79242;BME280;68670;48.720;9.118;2024-02-04T07:11:27;97928.47;;;5.85;89.85
79242;BME280;68670;48.720;9.118;2024-02-04T07:13:52;97921.16;;;5.86;90.16
79242;BME280;68670;48.720;9.118;2024-02-04T07:16:24;97909.19;;;5.80;90.43
79242;BME280;68670;48.720;9.118;2024-02-04T07:18:49;97910.09;;;5.87;90.41
79242;BME280;68670;48.720;9.118;2024-02-04T07:21:17;97909.00;;;5.82;90.54
79242;BME280;68670;48.720;9.118;2024-02-04T07:23:47;97911.91;;;5.80;90.75
79242;BME280;68670;48.720;9.118;2024-02-04T07:26:13;97911.25;;;5.78;91.13
79242;BME280;68670;48.720;9.118;2024-02-04T07:28:38;97913.69;;;5.73;91.59
79242;BME280;68670;48.720;9.118;2024-02-04T07:31:04;97910.41;;;5.78;90.94
79242;BME280;68670;48.720;9.118;2024-02-04T07:33:29;97908.41;;;5.86;90.23
79242;BME280;68670;48.720;9.118;2024-02-04T07:35:54;97909.38;;;5.93;90.01
79242;BME280;68670;48.720;9.118;2024-02-04T07:38:20;97909.38;;;5.93;89.88
79242;BME280;68670;48.720;9.118;2024-02-04T07:40:45;97903.56;;;5.96;89.87
79242;BME280;68670;48.720;9.118;2024-02-04T07:43:10;97908.91;;;5.90;89.93
79242;BME280;68670;48.720;9.118;2024-02-04T07:45:36;97917.72;;;5.92;89.83
79242;BME280;68670;48.720;9.118;2024-02-04T07:48:01;97925.69;;;5.93;89.96
79242;BME280;68670;48.720;9.118;2024-02-04T07:50:27;97928.31;;;6.01;89.27
79242;BME280;68670;48.720;9.118;2024-02-04T07:52:55;97921.19;;;6.00;89.64
79242;BME280;68670;48.720;9.118;2024-02-04T07:55:21;97918.75;;;6.05;89.26
79242;BME280;68670;48.720;9.118;2024-02-04T07:57:48;97912.47;;;6.05;89.42
79242;BME280;68670;48.720;9.118;2024-02-04T08:00:14;97895.31;;;6.04;89.64
79242;BME280;68670;48.720;9.118;2024-02-04T08:02:39;97899.06;;;6.03;90.01
79242;BME280;68670;48.720;9.118;2024-02-04T08:05:05;97895.31;;;6.04;89.82
79242;BME280;68670;48.720;9.118;2024-02-04T08:07:30;97893.44;;;6.05;89.46
79242;BME280;68670;48.720;9.118;2024-02-04T08:09:56;97888.94;;;6.12;89.20
79242;BME280;68670;48.720;9.118;2024-02-04T08:12:21;97877.47;;;6.17;89.16
79242;BME280;68670;48.720;9.118;2024-02-04T08:14:47;97869.56;;;6.22;89.09
79242;BME280;68670;48.720;9.118;2024-02-04T08:17:12;97873.78;;;6.24;88.86
79242;BME280;68670;48.720;9.118;2024-02-04T08:19:37;97874.25;;;6.28;88.85
79242;BME280;68670;48.720;9.118;2024-02-04T08:22:06;97881.38;;;6.29;88.47
79242;BME280;68670;48.720;9.118;2024-02-04T08:24:32;97886.53;;;6.24;88.63
79242;BME280;68670;48.720;9.118;2024-02-04T08:27:01;97888.88;;;6.27;88.46
79242;BME280;68670;48.720;9.118;2024-02-04T08:29:28;97893.94;;;6.30;88.37
79242;BME280;68670;48.720;9.118;2024-02-04T08:31:57;97883.13;;;6.36;88.61
79242;BME280;68670;48.720;9.118;2024-02-04T08:34:22;97884.06;;;6.44;87.84
79242;BME280;68670;48.720;9.118;2024-02-04T08:36:51;97887.91;;;6.49;87.70
79242;BME280;68670;48.720;9.118;2024-02-04T08:39:16;97894.22;;;6.56;87.86
79242;BME280;68670;48.720;9.118;2024-02-04T08:41:41;97892.34;;;6.57;87.18
79242;BME280;68670;48.720;9.118;2024-02-04T08:44:07;97893.06;;;6.65;86.63
79242;BME280;68670;48.720;9.118;2024-02-04T08:46:32;97900.28;;;6.73;86.84
79242;BME280;68670;48.720;9.118;2024-02-04T08:49:00;97907.47;;;6.81;86.36
79242;BME280;68670;48.720;9.118;2024-02-04T08:51:25;97914.63;;;6.82;85.63
79242;BME280;68670;48.720;9.118;2024-02-04T08:53:50;97910.81;;;6.83;85.98
79242;BME280;68670;48.720;9.118;2024-02-04T08:56:16;97907.72;;;6.86;85.60
79242;BME280;68670;48.720;9.118;2024-02-04T08:58:41;97907.34;;;6.89;85.10
79242;BME280;68670;48.720;9.118;2024-02-04T09:01:06;97895.66;;;6.95;85.13
79242;BME280;68670;48.720;9.118;2024-02-04T09:03:34;97884.19;;;6.99;84.86
79242;BME280;68670;48.720;9.118;2024-02-04T09:06:02;97883.41;;;7.05;84.30
79242;BME280;68670;48.720;9.118;2024-02-04T09:08:27;97887.88;;;7.13;84.15
79242;BME280;68670;48.720;9.118;2024-02-04T09:10:54;97896.06;;;7.13;84.11
79242;BME280;68670;48.720;9.118;2024-02-04T09:13:22;97890.19;;;7.16;83.91
79242;BME280;68670;48.720;9.118;2024-02-04T09:15:49;97883.84;;;7.09;83.86
79242;BME280;68670;48.720;9.118;2024-02-04T09:18:15;97884.13;;;7.14;83.33
79242;BME280;68670;48.720;9.118;2024-02-04T09:20:40;97887.44;;;7.16;83.69
79242;BME280;68670;48.720;9.118;2024-02-04T09:23:06;97898.22;;;7.24;83.35
79242;BME280;68670;48.720;9.118;2024-02-04T09:25:31;97899.66;;;7.20;83.25
79242;BME280;68670;48.720;9.118;2024-02-04T09:27:56;97900.28;;;7.22;83.17
79242;BME280;68670;48.720;9.118;2024-02-04T09:30:21;97907.88;;;7.27;83.04
79242;BME280;68670;48.720;9.118;2024-02-04T09:32:47;97909.81;;;7.33;82.71
79242;BME280;68670;48.720;9.118;2024-02-04T09:35:13;97911.06;;;7.30;82.72
79242;BME280;68670;48.720;9.118;2024-02-04T09:37:38;97915.72;;;7.36;82.70
79242;BME280;68670;48.720;9.118;2024-02-04T09:40:04;97914.75;;;7.51;82.07
79242;BME280;68670;48.720;9.118;2024-02-04T09:42:32;97913.31;;;7.55;81.92
79242;BME280;68670;48.720;9.118;2024-02-04T09:45:00;97903.63;;;7.73;80.61
79242;BME280;68670;48.720;9.118;2024-02-04T09:47:25;97895.59;;;8.06;79.01
79242;BME280;68670;48.720;9.118;2024-02-04T09:49:54;97899.22;;;8.20;78.57
79242;BME280;68670;48.720;9.118;2024-02-04T09:52:28;97909.00;;;8.36;78.22
79242;BME280;68670;48.720;9.118;2024-02-04T09:55:02;97902.75;;;8.55;77.23
79242;BME280;68670;48.720;9.118;2024-02-04T09:57:29;97897.53;;;8.67;76.20
79242;BME280;68670;48.720;9.118;2024-02-04T09:59:55;97894.97;;;8.59;76.29
79242;BME280;68670;48.720;9.118;2024-02-04T10:02:24;97900.66;;;8.64;76.31
79242;BME280;68670;48.720;9.118;2024-02-04T10:04:52;97898.13;;;8.56;76.24
79242;BME280;68670;48.720;9.118;2024-02-04T10:07:17;97884.44;;;8.49;76.65
79242;BME280;68670;48.720;9.118;2024-02-04T10:09:46;97865.75;;;8.46;76.79
79242;BME280;68670;48.720;9.118;2024-02-04T10:12:11;97856.72;;;8.39;76.43
79242;BME280;68670;48.720;9.118;2024-02-04T10:14:39;97848.53;;;8.52;76.48
79242;BME280;68670;48.720;9.118;2024-02-04T10:17:04;97841.06;;;9.00;75.12
79242;BME280;68670;48.720;9.118;2024-02-04T10:19:30;97842.28;;;8.91;74.59
79242;BME280;68670;48.720;9.118;2024-02-04T10:22:03;97841.88;;;9.27;74.17
79242;BME280;68670;48.720;9.118;2024-02-04T10:24:31;97843.34;;;9.17;73.49
79242;BME280;68670;48.720;9.118;2024-02-04T10:26:56;97832.84;;;9.07;74.03
79242;BME280;68670;48.720;9.118;2024-02-04T10:29:23;97830.09;;;9.20;73.49
79242;BME280;68670;48.720;9.118;2024-02-04T10:31:56;97822.75;;;8.88;74.21
79242;BME280;68670;48.720;9.118;2024-02-04T10:34:25;97812.03;;;9.19;73.43
79242;BME280;68670;48.720;9.118;2024-02-04T10:36:50;97816.88;;;9.04;73.96
79242;BME280;68670;48.720;9.118;2024-02-04T10:39:16;97808.25;;;9.07;74.10
79242;BME280;68670;48.720;9.118;2024-02-04T10:41:50;97797.97;;;9.02;74.42
79242;BME280;68670;48.720;9.118;2024-02-04T10:44:24;97794.56;;;9.14;74.45
79242;BME280;68670;48.720;9.118;2024-02-04T10:46:53;97799.81;;;9.15;74.26
79242;BME280;68670;48.720;9.118;2024-02-04T10:49:26;97806.56;;;9.13;74.59
79242;BME280;68670;48.720;9.118;2024-02-04T10:51:53;97826.97;;;8.97;74.86
79242;BME280;68670;48.720;9.118;2024-02-04T10:54:24;97836.00;;;9.04;75.13
79242;BME280;68670;48.720;9.118;2024-02-04T10:56:56;97844.81;;;9.26;74.56
79242;BME280;68670;48.720;9.118;2024-02-04T10:59:24;97865.84;;;9.25;74.02
79242;BME280;68670;48.720;9.118;2024-02-04T11:01:52;97862.47;;;9.23;74.60
79242;BME280;68670;48.720;9.118;2024-02-04T11:04:21;97871.50;;;9.17;75.28
79242;BME280;68670;48.720;9.118;2024-02-04T11:06:47;97839.78;;;9.16;75.32
79242;BME280;68670;48.720;9.118;2024-02-04T11:09:14;97832.63;;;9.28;75.25
79242;BME280;68670;48.720;9.118;2024-02-04T11:11:42;97813.28;;;9.36;74.18
79242;BME280;68670;48.720;9.118;2024-02-04T11:14:16;97799.47;;;9.76;73.04
79242;BME280;68670;48.720;9.118;2024-02-04T11:19:37;97797.53;;;9.96;73.03
79242;BME280;68670;48.720;9.118;2024-02-04T11:22:22;97791.53;;;10.13;72.07
79242;BME280;68670;48.720;9.118;2024-02-04T11:25:21;97793.19;;;10.27;71.48
79242;BME280;68670;48.720;9.118;2024-02-04T11:27:53;97797.25;;;10.49;71.23
79242;BME280;68670;48.720;9.118;2024-02-04T11:30:19;97799.06;;;10.62;70.03
79242;BME280;68670;48.720;9.118;2024-02-04T11:32:47;97810.94;;;10.81;69.60
79242;BME280;68670;48.720;9.118;2024-02-04T11:35:12;97805.22;;;10.57;69.70
79242;BME280;68670;48.720;9.118;2024-02-04T11:37:38;97791.69;;;10.62;69.08
79242;BME280;68670;48.720;9.118;2024-02-04T11:40:04;97794.06;;;10.84;68.71
79242;BME280;68670;48.720;9.118;2024-02-04T11:42:32;97780.09;;;10.92;68.58
79242;BME280;68670;48.720;9.118;2024-02-04T11:45:08;97789.66;;;10.51;69.54
79242;BME280;68670;48.720;9.118;2024-02-04T11:47:36;97787.09;;;10.56;70.07
79242;BME280;68670;48.720;9.118;2024-02-04T11:50:02;97781.44;;;10.51;70.04
79242;BME280;68670;48.720;9.118;2024-02-04T11:52:28;97784.19;;;10.51;70.23
79242;BME280;68670;48.720;9.118;2024-02-04T11:54:56;97800.59;;;10.83;69.77
79242;BME280;68670;48.720;9.118;2024-02-04T11:57:22;97789.91;;;10.74;69.30
79242;BME280;68670;48.720;9.118;2024-02-04T11:59:48;97786.00;;;10.89;69.31
79242;BME280;68670;48.720;9.118;2024-02-04T12:02:17;97779.50;;;10.58;70.15
79242;BME280;68670;48.720;9.118;2024-02-04T12:04:49;97756.06;;;10.37;70.81
79242;BME280;68670;48.720;9.118;2024-02-04T12:07:18;97758.66;;;10.26;71.03
79242;BME280;68670;48.720;9.118;2024-02-04T12:09:44;97750.28;;;10.07;72.15
79242;BME280;68670;48.720;9.118;2024-02-04T12:12:10;97750.28;;;10.07;72.24
79242;BME280;68670;48.720;9.118;2024-02-04T12:14:36;97743.59;;;10.03;72.32
79242;BME280;68670;48.720;9.118;2024-02-04T12:17:10;97740.69;;;9.92;72.57
79242;BME280;68670;48.720;9.118;2024-02-04T12:19:36;97739.44;;;9.94;73.05
79242;BME280;68670;48.720;9.118;2024-02-04T12:22:02;97730.59;;;9.92;73.37
79242;BME280;68670;48.720;9.118;2024-02-04T12:24:33;97737.06;;;10.04;72.84
79242;BME280;68670;48.720;9.118;2024-02-04T12:27:01;97732.38;;;9.73;73.65
79242;BME280;68670;48.720;9.118;2024-02-04T12:29:28;97733.56;;;9.84;73.75
79242;BME280;68670;48.720;9.118;2024-02-04T12:32:00;97720.13;;;9.76;73.79
79242;BME280;68670;48.720;9.118;2024-02-04T12:34:28;97723.91;;;9.82;73.69
79242;BME280;68670;48.720;9.118;2024-02-04T12:36:58;97721.81;;;9.77;73.60
79242;BME280;68670;48.720;9.118;2024-02-04T12:39:27;97719.03;;;9.90;73.46
79242;BME280;68670;48.720;9.118;2024-02-04T12:41:55;97725.59;;;9.83;72.87
79242;BME280;68670;48.720;9.118;2024-02-04T12:44:21;97721.28;;;10.00;72.89
79242;BME280;68670;48.720;9.118;2024-02-04T12:46:50;97726.78;;;10.00;72.20
79242;BME280;68670;48.720;9.118;2024-02-04T12:49:19;97735.16;;;10.05;72.40
79242;BME280;68670;48.720;9.118;2024-02-04T12:51:48;97718.47;;;10.20;71.50
79242;BME280;68670;48.720;9.118;2024-02-04T12:54:14;97709.38;;;10.26;71.44
79242;BME280;68670;48.720;9.118;2024-02-04T12:56:48;97703.44;;;10.29;71.30
79242;BME280;68670;48.720;9.118;2024-02-04T12:59:32;97711.66;;;10.29;70.84
79242;BME280;68670;48.720;9.118;2024-02-04T13:02:06;97702.84;;;10.27;71.32
79242;BME280;68670;48.720;9.118;2024-02-04T13:04:40;97698.16;;;10.34;71.22
79242;BME280;68670;48.720;9.118;2024-02-04T13:07:14;97697.81;;;10.49;70.29
79242;BME280;68670;48.720;9.118;2024-02-04T13:09:43;97691.06;;;10.51;70.11
79242;BME280;68670;48.720;9.118;2024-02-04T13:12:10;97693.38;;;10.72;69.26
79242;BME280;68670;48.720;9.118;2024-02-04T13:14:39;97706.38;;;10.84;69.21
79242;BME280;68670;48.720;9.118;2024-02-04T13:17:07;97710.13;;;10.64;69.01